sensor_id;sensor_type;location;lat;lon;timestamp;P1;durP1;ratioP1;P2;durP2;ratioP2
11037;SDS011;5572;49.540;11.932;2023-05-14T00:00:31;507.37;;;124.20;;
11037;SDS011;5572;49.540;11.932;2023-05-14T00:02:59;529.50;;;146.47;;
11037;SDS011;5572;49.540;11.932;2023-05-14T00:05:29;412.07;;;107.80;;
11037;SDS011;5572;49.540;11.932;2023-05-14T00:07:56;525.33;;;136.07;;
11037;SDS011;5572;49.540;11.932;2023-05-14T00:10:23;509.33;;;128.80;;
11037;SDS011;5572;49.540;11.932;2023-05-14T00:12:49;499.80;;;120.70;;
11037;SDS011;5572;49.540;11.932;2023-05-14T00:15:16;509.00;;;124.80;;
11037;SDS011;5572;49.540;11.932;2023-05-14T00:17:43;502.87;;;121.77;;
11037;SDS011;5572;49.540;11.932;2023-05-14T00:20:12;516.03;;;127.43;;
11037;SDS011;5572;49.540;11.932;2023-05-14T00:22:38;400.90;;;102.67;;
11037;SDS011;5572;49.540;11.932;2023-05-14T00:25:05;503.13;;;119.30;;
11037;SDS011;5572;49.540;11.932;2023-05-14T00:27:33;499.70;;;118.77;;
11037;SDS011;5572;49.540;11.932;2023-05-14T00:30:02;394.13;;;96.83;;
11037;SDS011;5572;49.540;11.932;2023-05-14T00:32:30;521.17;;;129.23;;
11037;SDS011;5572;49.540;11.932;2023-05-14T00:34:56;404.97;;;104.37;;
11037;SDS011;5572;49.540;11.932;2023-05-14T00:37:25;517.33;;;125.57;;
11037;SDS011;5572;49.540;11.932;2023-05-14T00:39:51;513.30;;;125.67;;
11037;SDS011;5572;49.540;11.932;2023-05-14T00:42:18;517.13;;;127.83;;
11037;SDS011;5572;49.540;11.932;2023-05-14T00:44:47;413.53;;;109.90;;
11037;SDS011;5572;49.540;11.932;2023-05-14T00:47:14;399.80;;;102.50;;
11037;SDS011;5572;49.540;11.932;2023-05-14T00:49:41;410.30;;;105.97;;
11037;SDS011;5572;49.540;11.932;2023-05-14T00:52:08;521.83;;;126.30;;
11037;SDS011;5572;49.540;11.932;2023-05-14T00:54:38;527.43;;;131.47;;
11037;SDS011;5572;49.540;11.932;2023-05-14T00:57:04;525.10;;;130.93;;
11037;SDS011;5572;49.540;11.932;2023-05-14T00:59:31;525.63;;;132.03;;
11037;SDS011;5572;49.540;11.932;2023-05-14T01:01:59;525.20;;;130.93;;
11037;SDS011;5572;49.540;11.932;2023-05-14T01:04:25;520.23;;;130.60;;
11037;SDS011;5572;49.540;11.932;2023-05-14T01:06:55;525.97;;;132.70;;
11037;SDS011;5572;49.540;11.932;2023-05-14T01:09:31;411.63;;;103.33;;
11037;SDS011;5572;49.540;11.932;2023-05-14T01:12:07;519.73;;;127.60;;
11037;SDS011;5572;49.540;11.932;2023-05-14T01:14:43;521.33;;;124.37;;
11037;SDS011;5572;49.540;11.932;2023-05-14T01:17:14;520.57;;;128.97;;
11037;SDS011;5572;49.540;11.932;2023-05-14T01:19:44;411.27;;;104.47;;
11037;SDS011;5572;49.540;11.932;2023-05-14T01:22:14;397.10;;;97.50;;
11037;SDS011;5572;49.540;11.932;2023-05-14T01:24:40;524.20;;;132.40;;
11037;SDS011;5572;49.540;11.932;2023-05-14T01:27:08;524.50;;;134.43;;
11037;SDS011;5572;49.540;11.932;2023-05-14T01:29:39;530.27;;;131.30;;
11037;SDS011;5572;49.540;11.932;2023-05-14T01:32:10;409.90;;;103.63;;
11037;SDS011;5572;49.540;11.932;2023-05-14T01:34:38;413.87;;;102.57;;
11037;SDS011;5572;49.540;11.932;2023-05-14T01:37:06;397.97;;;95.70;;
11037;SDS011;5572;49.540;11.932;2023-05-14T01:39:36;526.17;;;131.93;;
11037;SDS011;5572;49.540;11.932;2023-05-14T01:42:04;525.80;;;127.27;;
11037;SDS011;5572;49.540;11.932;2023-05-14T01:44:32;539.40;;;129.00;;
11037;SDS011;5572;49.540;11.932;2023-05-14T01:46:59;532.00;;;132.83;;
11037;SDS011;5572;49.540;11.932;2023-05-14T01:49:26;411.00;;;104.20;;
11037;SDS011;5572;49.540;11.932;2023-05-14T01:51:52;523.67;;;127.37;;
11037;SDS011;5572;49.540;11.932;2023-05-14T01:54:19;530.67;;;130.77;;
11037;SDS011;5572;49.540;11.932;2023-05-14T01:56:47;525.60;;;128.07;;
11037;SDS011;5572;49.540;11.932;2023-05-14T01:59:13;523.00;;;123.57;;
11037;SDS011;5572;49.540;11.932;2023-05-14T02:01:40;411.87;;;100.47;;
11037;SDS011;5572;49.540;11.932;2023-05-14T02:04:06;524.00;;;123.33;;
11037;SDS011;5572;49.540;11.932;2023-05-14T02:06:33;522.53;;;121.17;;
11037;SDS011;5572;49.540;11.932;2023-05-14T02:09:00;389.40;;;90.13;;
11037;SDS011;5572;49.540;11.932;2023-05-14T02:11:28;408.97;;;97.67;;
11037;SDS011;5572;49.540;11.932;2023-05-14T02:13:56;410.30;;;99.57;;
11037;SDS011;5572;49.540;11.932;2023-05-14T02:16:23;520.70;;;117.07;;
11037;SDS011;5572;49.540;11.932;2023-05-14T02:18:49;404.67;;;95.83;;
11037;SDS011;5572;49.540;11.932;2023-05-14T02:21:16;518.60;;;118.80;;
11037;SDS011;5572;49.540;11.932;2023-05-14T02:23:42;410.13;;;97.03;;
11037;SDS011;5572;49.540;11.932;2023-05-14T02:26:09;527.60;;;123.73;;
11037;SDS011;5572;49.540;11.932;2023-05-14T02:28:36;518.93;;;119.80;;
11037;SDS011;5572;49.540;11.932;2023-05-14T02:31:04;407.00;;;96.53;;
11037;SDS011;5572;49.540;11.932;2023-05-14T02:33:31;520.57;;;119.53;;
11037;SDS011;5572;49.540;11.932;2023-05-14T02:35:57;411.13;;;102.97;;
11037;SDS011;5572;49.540;11.932;2023-05-14T02:38:24;407.57;;;97.63;;
11037;SDS011;5572;49.540;11.932;2023-05-14T02:40:51;517.27;;;119.03;;
11037;SDS011;5572;49.540;11.932;2023-05-14T02:43:18;408.47;;;98.10;;
11037;SDS011;5572;49.540;11.932;2023-05-14T02:45:44;516.50;;;116.47;;
11037;SDS011;5572;49.540;11.932;2023-05-14T02:48:12;411.23;;;95.07;;
11037;SDS011;5572;49.540;11.932;2023-05-14T02:50:39;518.07;;;114.27;;
11037;SDS011;5572;49.540;11.932;2023-05-14T02:53:05;404.37;;;93.67;;
11037;SDS011;5572;49.540;11.932;2023-05-14T02:55:32;515.60;;;114.97;;
11037;SDS011;5572;49.540;11.932;2023-05-14T02:57:59;517.80;;;117.77;;
11037;SDS011;5572;49.540;11.932;2023-05-14T03:00:25;516.57;;;118.43;;
11037;SDS011;5572;49.540;11.932;2023-05-14T03:02:52;515.17;;;117.90;;
11037;SDS011;5572;49.540;11.932;2023-05-14T03:05:20;394.37;;;86.77;;
11037;SDS011;5572;49.540;11.932;2023-05-14T03:07:47;520.23;;;120.57;;
11037;SDS011;5572;49.540;11.932;2023-05-14T03:10:15;413.80;;;99.77;;
11037;SDS011;5572;49.540;11.932;2023-05-14T03:12:41;492.00;;;104.00;;
11037;SDS011;5572;49.540;11.932;2023-05-14T03:15:08;388.50;;;86.70;;
11037;SDS011;5572;49.540;11.932;2023-05-14T03:17:36;388.60;;;85.60;;
11037;SDS011;5572;49.540;11.932;2023-05-14T03:20:02;387.00;;;85.30;;
11037;SDS011;5572;49.540;11.932;2023-05-14T03:22:31;387.07;;;84.30;;
11037;SDS011;5572;49.540;11.932;2023-05-14T03:24:57;386.97;;;84.90;;
11037;SDS011;5572;49.540;11.932;2023-05-14T03:27:24;385.33;;;83.57;;
11037;SDS011;5572;49.540;11.932;2023-05-14T03:29:50;389.50;;;87.07;;
11037;SDS011;5572;49.540;11.932;2023-05-14T03:32:17;384.37;;;79.60;;
11037;SDS011;5572;49.540;11.932;2023-05-14T03:34:43;387.90;;;85.90;;
11037;SDS011;5572;49.540;11.932;2023-05-14T03:37:10;389.50;;;85.93;;
11037;SDS011;5572;49.540;11.932;2023-05-14T03:39:38;389.70;;;85.57;;
11037;SDS011;5572;49.540;11.932;2023-05-14T03:42:05;386.40;;;81.13;;
11037;SDS011;5572;49.540;11.932;2023-05-14T03:44:31;386.30;;;82.73;;
11037;SDS011;5572;49.540;11.932;2023-05-14T03:46:58;492.63;;;103.83;;
11037;SDS011;5572;49.540;11.932;2023-05-14T03:49:24;408.57;;;94.50;;
11037;SDS011;5572;49.540;11.932;2023-05-14T03:51:51;404.37;;;91.10;;
11037;SDS011;5572;49.540;11.932;2023-05-14T03:54:18;502.53;;;106.67;;
11037;SDS011;5572;49.540;11.932;2023-05-14T03:56:45;170.33;;;41.93;;
11037;SDS011;5572;49.540;11.932;2023-05-14T03:59:12;502.77;;;104.67;;
11037;SDS011;5572;49.540;11.932;2023-05-14T04:01:39;382.10;;;81.53;;
11037;SDS011;5572;49.540;11.932;2023-05-14T04:04:05;488.57;;;101.73;;
11037;SDS011;5572;49.540;11.932;2023-05-14T04:06:32;272.20;;;62.40;;
11037;SDS011;5572;49.540;11.932;2023-05-14T04:08:58;485.63;;;100.63;;
11037;SDS011;5572;49.540;11.932;2023-05-14T04:11:25;386.00;;;85.17;;
11037;SDS011;5572;49.540;11.932;2023-05-14T04:13:53;487.23;;;102.80;;
11037;SDS011;5572;49.540;11.932;2023-05-14T04:16:20;385.20;;;84.03;;
11037;SDS011;5572;49.540;11.932;2023-05-14T04:18:46;395.10;;;84.60;;
11037;SDS011;5572;49.540;11.932;2023-05-14T04:21:13;494.33;;;104.77;;
11037;SDS011;5572;49.540;11.932;2023-05-14T04:23:39;390.00;;;88.60;;
11037;SDS011;5572;49.540;11.932;2023-05-14T04:26:06;501.93;;;111.50;;
11037;SDS011;5572;49.540;11.932;2023-05-14T04:28:33;390.23;;;85.03;;
11037;SDS011;5572;49.540;11.932;2023-05-14T04:31:00;499.67;;;108.37;;
11037;SDS011;5572;49.540;11.932;2023-05-14T04:33:27;494.40;;;105.80;;
11037;SDS011;5572;49.540;11.932;2023-05-14T04:35:54;395.27;;;90.10;;
11037;SDS011;5572;49.540;11.932;2023-05-14T04:38:21;397.43;;;90.43;;
11037;SDS011;5572;49.540;11.932;2023-05-14T04:40:48;395.37;;;90.80;;
11037;SDS011;5572;49.540;11.932;2023-05-14T04:43:14;500.83;;;109.37;;
11037;SDS011;5572;49.540;11.932;2023-05-14T04:45:41;391.57;;;86.53;;
11037;SDS011;5572;49.540;11.932;2023-05-14T04:48:09;492.77;;;105.87;;
11037;SDS011;5572;49.540;11.932;2023-05-14T04:50:36;386.40;;;84.37;;
11037;SDS011;5572;49.540;11.932;2023-05-14T04:53:02;496.03;;;106.43;;
11037;SDS011;5572;49.540;11.932;2023-05-14T04:55:29;388.33;;;88.60;;
11037;SDS011;5572;49.540;11.932;2023-05-14T04:57:56;501.27;;;112.73;;
11037;SDS011;5572;49.540;11.932;2023-05-14T05:00:22;497.90;;;109.43;;
11037;SDS011;5572;49.540;11.932;2023-05-14T05:02:49;498.10;;;108.30;;
11037;SDS011;5572;49.540;11.932;2023-05-14T05:05:17;385.07;;;84.57;;
11037;SDS011;5572;49.540;11.932;2023-05-14T05:07:44;393.73;;;90.70;;
11037;SDS011;5572;49.540;11.932;2023-05-14T05:10:11;392.97;;;90.00;;
11037;SDS011;5572;49.540;11.932;2023-05-14T05:12:37;397.43;;;89.63;;
11037;SDS011;5572;49.540;11.932;2023-05-14T05:15:04;394.90;;;89.50;;
11037;SDS011;5572;49.540;11.932;2023-05-14T05:17:33;368.87;;;82.30;;
11037;SDS011;5572;49.540;11.932;2023-05-14T05:20:00;389.00;;;88.00;;
11037;SDS011;5572;49.540;11.932;2023-05-14T05:22:30;395.27;;;90.57;;
11037;SDS011;5572;49.540;11.932;2023-05-14T05:24:56;393.90;;;92.57;;
11037;SDS011;5572;49.540;11.932;2023-05-14T05:27:23;397.50;;;96.00;;
11037;SDS011;5572;49.540;11.932;2023-05-14T05:29:50;291.40;;;74.63;;
11037;SDS011;5572;49.540;11.932;2023-05-14T05:32:16;395.50;;;94.33;;
11037;SDS011;5572;49.540;11.932;2023-05-14T05:34:43;509.97;;;125.40;;
11037;SDS011;5572;49.540;11.932;2023-05-14T05:37:10;399.20;;;101.77;;
11037;SDS011;5572;49.540;11.932;2023-05-14T05:39:40;398.13;;;102.77;;
11037;SDS011;5572;49.540;11.932;2023-05-14T05:42:06;402.33;;;101.10;;
11037;SDS011;5572;49.540;11.932;2023-05-14T05:44:33;510.50;;;128.17;;
11037;SDS011;5572;49.540;11.932;2023-05-14T05:46:59;401.43;;;106.03;;
11037;SDS011;5572;49.540;11.932;2023-05-14T05:49:26;401.23;;;104.40;;
11037;SDS011;5572;49.540;11.932;2023-05-14T05:51:53;518.80;;;132.77;;
11037;SDS011;5572;49.540;11.932;2023-05-14T05:54:19;404.23;;;103.20;;
11037;SDS011;5572;49.540;11.932;2023-05-14T05:56:47;401.43;;;106.93;;
11037;SDS011;5572;49.540;11.932;2023-05-14T05:59:14;403.30;;;107.30;;
11037;SDS011;5572;49.540;11.932;2023-05-14T06:01:40;512.10;;;132.87;;
11037;SDS011;5572;49.540;11.932;2023-05-14T06:04:07;403.73;;;109.40;;
11037;SDS011;5572;49.540;11.932;2023-05-14T06:06:34;404.50;;;113.07;;
11037;SDS011;5572;49.540;11.932;2023-05-14T06:09:00;403.93;;;116.73;;
11037;SDS011;5572;49.540;11.932;2023-05-14T06:11:28;407.63;;;111.50;;
11037;SDS011;5572;49.540;11.932;2023-05-14T06:13:56;522.20;;;148.43;;
11037;SDS011;5572;49.540;11.932;2023-05-14T06:16:23;522.57;;;146.33;;
11037;SDS011;5572;49.540;11.932;2023-05-14T06:18:49;521.47;;;146.77;;
11037;SDS011;5572;49.540;11.932;2023-05-14T06:21:16;512.20;;;136.43;;
11037;SDS011;5572;49.540;11.932;2023-05-14T06:23:43;401.23;;;110.20;;
11037;SDS011;5572;49.540;11.932;2023-05-14T06:26:10;412.73;;;115.50;;
11037;SDS011;5572;49.540;11.932;2023-05-14T06:28:36;510.03;;;132.30;;
11037;SDS011;5572;49.540;11.932;2023-05-14T06:31:04;515.37;;;136.83;;
11037;SDS011;5572;49.540;11.932;2023-05-14T06:33:31;401.33;;;107.50;;
11037;SDS011;5572;49.540;11.932;2023-05-14T06:35:57;408.77;;;118.23;;
11037;SDS011;5572;49.540;11.932;2023-05-14T06:38:24;518.17;;;138.37;;
11037;SDS011;5572;49.540;11.932;2023-05-14T06:40:51;515.97;;;138.73;;
11037;SDS011;5572;49.540;11.932;2023-05-14T06:43:18;395.17;;;104.87;;
11037;SDS011;5572;49.540;11.932;2023-05-14T06:45:47;393.50;;;104.13;;
11037;SDS011;5572;49.540;11.932;2023-05-14T06:48:15;386.37;;;102.23;;
11037;SDS011;5572;49.540;11.932;2023-05-14T06:50:42;392.47;;;102.97;;
11037;SDS011;5572;49.540;11.932;2023-05-14T06:53:09;507.00;;;126.77;;
11037;SDS011;5572;49.540;11.932;2023-05-14T06:55:36;392.60;;;104.33;;
11037;SDS011;5572;49.540;11.932;2023-05-14T06:58:04;497.13;;;124.27;;
11037;SDS011;5572;49.540;11.932;2023-05-14T07:00:31;510.13;;;133.90;;
11037;SDS011;5572;49.540;11.932;2023-05-14T07:02:58;390.10;;;101.47;;
11037;SDS011;5572;49.540;11.932;2023-05-14T07:05:26;392.17;;;103.73;;
11037;SDS011;5572;49.540;11.932;2023-05-14T07:07:53;509.03;;;132.27;;
11037;SDS011;5572;49.540;11.932;2023-05-14T07:10:19;394.40;;;107.80;;
11037;SDS011;5572;49.540;11.932;2023-05-14T07:12:46;391.53;;;103.40;;
11037;SDS011;5572;49.540;11.932;2023-05-14T07:15:13;511.23;;;135.43;;
11037;SDS011;5572;49.540;11.932;2023-05-14T07:17:39;395.30;;;103.97;;
11037;SDS011;5572;49.540;11.932;2023-05-14T07:20:06;390.20;;;103.37;;
11037;SDS011;5572;49.540;11.932;2023-05-14T07:22:35;393.83;;;104.50;;
11037;SDS011;5572;49.540;11.932;2023-05-14T07:25:02;389.83;;;103.03;;
11037;SDS011;5572;49.540;11.932;2023-05-14T07:27:28;505.17;;;126.60;;
11037;SDS011;5572;49.540;11.932;2023-05-14T07:29:55;394.50;;;102.60;;
11037;SDS011;5572;49.540;11.932;2023-05-14T07:32:21;394.10;;;102.00;;
11037;SDS011;5572;49.540;11.932;2023-05-14T07:34:49;504.80;;;124.93;;
11037;SDS011;5572;49.540;11.932;2023-05-14T07:37:15;506.47;;;132.67;;
11037;SDS011;5572;49.540;11.932;2023-05-14T07:39:43;526.97;;;149.27;;
11037;SDS011;5572;49.540;11.932;2023-05-14T07:42:10;399.30;;;108.97;;
11037;SDS011;5572;49.540;11.932;2023-05-14T07:44:37;537.13;;;171.00;;
11037;SDS011;5572;49.540;11.932;2023-05-14T07:47:03;427.63;;;143.83;;
11037;SDS011;5572;49.540;11.932;2023-05-14T07:49:32;577.30;;;188.47;;
11037;SDS011;5572;49.540;11.932;2023-05-14T07:51:59;416.60;;;129.00;;
11037;SDS011;5572;49.540;11.932;2023-05-14T07:54:25;538.70;;;165.23;;
11037;SDS011;5572;49.540;11.932;2023-05-14T07:56:54;424.10;;;138.03;;
11037;SDS011;5572;49.540;11.932;2023-05-14T07:59:20;415.57;;;126.67;;
11037;SDS011;5572;49.540;11.932;2023-05-14T08:01:47;413.63;;;123.60;;
11037;SDS011;5572;49.540;11.932;2023-05-14T08:04:13;419.87;;;133.70;;
11037;SDS011;5572;49.540;11.932;2023-05-14T08:06:40;413.37;;;120.73;;
11037;SDS011;5572;49.540;11.932;2023-05-14T08:09:07;525.77;;;147.80;;
11037;SDS011;5572;49.540;11.932;2023-05-14T08:11:33;414.10;;;121.73;;
11037;SDS011;5572;49.540;11.932;2023-05-14T08:14:01;533.83;;;151.80;;
11037;SDS011;5572;49.540;11.932;2023-05-14T08:16:28;411.77;;;122.30;;
11037;SDS011;5572;49.540;11.932;2023-05-14T08:18:54;539.73;;;164.83;;
11037;SDS011;5572;49.540;11.932;2023-05-14T08:21:21;542.17;;;169.13;;
11037;SDS011;5572;49.540;11.932;2023-05-14T08:23:48;424.73;;;139.70;;
11037;SDS011;5572;49.540;11.932;2023-05-14T08:26:14;547.77;;;177.13;;
11037;SDS011;5572;49.540;11.932;2023-05-14T08:28:41;412.90;;;126.50;;
11037;SDS011;5572;49.540;11.932;2023-05-14T08:31:09;533.47;;;163.80;;
11037;SDS011;5572;49.540;11.932;2023-05-14T08:33:38;415.40;;;128.07;;
11037;SDS011;5572;49.540;11.932;2023-05-14T08:36:05;541.63;;;165.67;;
11037;SDS011;5572;49.540;11.932;2023-05-14T08:38:32;415.87;;;127.67;;
11037;SDS011;5572;49.540;11.932;2023-05-14T08:40:59;536.77;;;164.53;;
11037;SDS011;5572;49.540;11.932;2023-05-14T08:43:26;531.60;;;157.40;;
11037;SDS011;5572;49.540;11.932;2023-05-14T08:45:59;420.60;;;137.07;;
11037;SDS011;5572;49.540;11.932;2023-05-14T08:48:32;421.17;;;137.50;;
11037;SDS011;5572;49.540;11.932;2023-05-14T08:51:00;535.87;;;166.87;;
11037;SDS011;5572;49.540;11.932;2023-05-14T08:53:27;416.87;;;137.43;;
11037;SDS011;5572;49.540;11.932;2023-05-14T08:55:54;421.37;;;138.00;;
11037;SDS011;5572;49.540;11.932;2023-05-14T08:58:20;429.70;;;156.50;;
11037;SDS011;5572;49.540;11.932;2023-05-14T09:00:47;547.17;;;189.37;;
11037;SDS011;5572;49.540;11.932;2023-05-14T09:03:14;548.20;;;194.33;;
11037;SDS011;5572;49.540;11.932;2023-05-14T09:05:42;563.27;;;237.33;;
11037;SDS011;5572;49.540;11.932;2023-05-14T09:08:09;433.67;;;182.03;;
11037;SDS011;5572;49.540;11.932;2023-05-14T09:10:36;574.23;;;262.40;;
11037;SDS011;5572;49.540;11.932;2023-05-14T09:13:04;579.23;;;276.13;;
11037;SDS011;5572;49.540;11.932;2023-05-14T09:15:31;447.07;;;228.07;;
11037;SDS011;5572;49.540;11.932;2023-05-14T09:18:00;593.73;;;307.70;;
11037;SDS011;5572;49.540;11.932;2023-05-14T09:20:27;477.30;;;275.90;;
11037;SDS011;5572;49.540;11.932;2023-05-14T09:22:55;599.70;;;323.27;;
11037;SDS011;5572;49.540;11.932;2023-05-14T09:25:25;424.10;;;180.17;;
11037;SDS011;5572;49.540;11.932;2023-05-14T09:27:52;544.40;;;216.23;;
11037;SDS011;5572;49.540;11.932;2023-05-14T09:30:19;524.53;;;190.67;;
11037;SDS011;5572;49.540;11.932;2023-05-14T09:32:46;528.37;;;201.17;;
11037;SDS011;5572;49.540;11.932;2023-05-14T09:35:15;427.07;;;195.80;;
11037;SDS011;5572;49.540;11.932;2023-05-14T09:37:44;425.80;;;188.53;;
11037;SDS011;5572;49.540;11.932;2023-05-14T09:40:14;424.87;;;192.50;;
11037;SDS011;5572;49.540;11.932;2023-05-14T09:42:42;527.13;;;200.20;;
11037;SDS011;5572;49.540;11.932;2023-05-14T09:45:09;524.43;;;195.87;;
11037;SDS011;5572;49.540;11.932;2023-05-14T09:47:36;406.17;;;152.00;;
11037;SDS011;5572;49.540;11.932;2023-05-14T09:50:04;418.20;;;170.53;;
11037;SDS011;5572;49.540;11.932;2023-05-14T09:52:32;411.60;;;155.90;;
11037;SDS011;5572;49.540;11.932;2023-05-14T09:54:59;414.77;;;151.67;;
11037;SDS011;5572;49.540;11.932;2023-05-14T09:57:27;415.67;;;164.50;;
11037;SDS011;5572;49.540;11.932;2023-05-14T09:59:54;534.50;;;205.80;;
11037;SDS011;5572;49.540;11.932;2023-05-14T10:02:21;524.70;;;201.17;;
11037;SDS011;5572;49.540;11.932;2023-05-14T10:04:50;419.47;;;178.33;;
11037;SDS011;5572;49.540;11.932;2023-05-14T10:07:21;417.67;;;173.10;;
11037;SDS011;5572;49.540;11.932;2023-05-14T10:09:50;531.57;;;200.37;;
11037;SDS011;5572;49.540;11.932;2023-05-14T10:12:22;407.07;;;159.80;;
11037;SDS011;5572;49.540;11.932;2023-05-14T10:14:51;543.30;;;232.90;;
11037;SDS011;5572;49.540;11.932;2023-05-14T10:17:21;584.13;;;277.93;;
11037;SDS011;5572;49.540;11.932;2023-05-14T10:19:53;439.90;;;226.37;;
11037;SDS011;5572;49.540;11.932;2023-05-14T10:22:25;443.20;;;221.83;;
11037;SDS011;5572;49.540;11.932;2023-05-14T10:24:56;442.90;;;223.67;;
11037;SDS011;5572;49.540;11.932;2023-05-14T10:27:23;567.60;;;268.00;;
11037;SDS011;5572;49.540;11.932;2023-05-14T10:29:52;436.50;;;214.77;;
11037;SDS011;5572;49.540;11.932;2023-05-14T10:32:20;413.50;;;159.50;;
11037;SDS011;5572;49.540;11.932;2023-05-14T10:34:49;413.13;;;159.40;;
11037;SDS011;5572;49.540;11.932;2023-05-14T10:37:17;409.87;;;161.73;;
11037;SDS011;5572;49.540;11.932;2023-05-14T10:39:46;404.83;;;155.93;;
11037;SDS011;5572;49.540;11.932;2023-05-14T10:42:15;521.30;;;191.67;;
11037;SDS011;5572;49.540;11.932;2023-05-14T10:44:47;527.60;;;193.07;;
11037;SDS011;5572;49.540;11.932;2023-05-14T10:47:17;393.77;;;156.27;;
11037;SDS011;5572;49.540;11.932;2023-05-14T10:49:45;402.67;;;158.27;;
11037;SDS011;5572;49.540;11.932;2023-05-14T10:52:17;409.23;;;162.17;;
11037;SDS011;5572;49.540;11.932;2023-05-14T10:54:47;541.60;;;203.90;;
11037;SDS011;5572;49.540;11.932;2023-05-14T10:57:16;415.47;;;164.30;;
11037;SDS011;5572;49.540;11.932;2023-05-14T10:59:43;421.17;;;160.63;;
11037;SDS011;5572;49.540;11.932;2023-05-14T11:02:21;407.07;;;145.60;;
11037;SDS011;5572;49.540;11.932;2023-05-14T11:04:51;443.33;;;214.43;;
11037;SDS011;5572;49.540;11.932;2023-05-14T11:07:19;399.20;;;133.83;;
11037;SDS011;5572;49.540;11.932;2023-05-14T11:09:52;418.57;;;152.97;;
11037;SDS011;5572;49.540;11.932;2023-05-14T11:12:22;399.40;;;124.63;;
11037;SDS011;5572;49.540;11.932;2023-05-14T11:14:49;400.57;;;132.83;;
11037;SDS011;5572;49.540;11.932;2023-05-14T11:17:15;411.70;;;154.37;;
11037;SDS011;5572;49.540;11.932;2023-05-14T11:19:44;411.50;;;148.60;;
11037;SDS011;5572;49.540;11.932;2023-05-14T11:22:11;415.33;;;147.57;;
11037;SDS011;5572;49.540;11.932;2023-05-14T11:24:38;412.70;;;150.40;;
11037;SDS011;5572;49.540;11.932;2023-05-14T11:27:06;410.53;;;152.20;;
11037;SDS011;5572;49.540;11.932;2023-05-14T11:29:33;411.30;;;156.63;;
11037;SDS011;5572;49.540;11.932;2023-05-14T11:32:00;403.83;;;143.43;;
11037;SDS011;5572;49.540;11.932;2023-05-14T11:34:28;409.47;;;155.13;;
11037;SDS011;5572;49.540;11.932;2023-05-14T11:36:56;412.07;;;165.67;;
11037;SDS011;5572;49.540;11.932;2023-05-14T11:39:23;526.03;;;188.17;;
11037;SDS011;5572;49.540;11.932;2023-05-14T11:41:50;424.50;;;180.70;;
11037;SDS011;5572;49.540;11.932;2023-05-14T11:44:16;541.53;;;220.67;;
11037;SDS011;5572;49.540;11.932;2023-05-14T11:46:52;545.63;;;227.00;;
11037;SDS011;5572;49.540;11.932;2023-05-14T11:49:19;410.57;;;164.67;;
11037;SDS011;5572;49.540;11.932;2023-05-14T11:51:46;537.10;;;222.10;;
11037;SDS011;5572;49.540;11.932;2023-05-14T11:54:14;532.40;;;216.43;;
11037;SDS011;5572;49.540;11.932;2023-05-14T11:56:41;416.93;;;181.67;;
11037;SDS011;5572;49.540;11.932;2023-05-14T11:59:09;421.70;;;183.43;;
11037;SDS011;5572;49.540;11.932;2023-05-14T12:01:36;408.70;;;160.47;;
11037;SDS011;5572;49.540;11.932;2023-05-14T12:04:03;532.93;;;214.77;;
11037;SDS011;5572;49.540;11.932;2023-05-14T12:06:30;416.70;;;189.13;;
11037;SDS011;5572;49.540;11.932;2023-05-14T12:08:57;414.17;;;189.70;;
11037;SDS011;5572;49.540;11.932;2023-05-14T12:11:27;413.20;;;190.97;;
11037;SDS011;5572;49.540;11.932;2023-05-14T12:13:56;422.40;;;217.10;;
11037;SDS011;5572;49.540;11.932;2023-05-14T12:16:22;525.87;;;243.73;;
11037;SDS011;5572;49.540;11.932;2023-05-14T12:18:57;410.60;;;191.43;;
11037;SDS011;5572;49.540;11.932;2023-05-14T12:21:25;533.10;;;237.83;;
11037;SDS011;5572;49.540;11.932;2023-05-14T12:23:55;535.37;;;234.43;;
11037;SDS011;5572;49.540;11.932;2023-05-14T12:26:24;408.23;;;165.57;;
11037;SDS011;5572;49.540;11.932;2023-05-14T12:28:57;413.57;;;174.43;;
11037;SDS011;5572;49.540;11.932;2023-05-14T12:31:28;412.43;;;169.80;;
11037;SDS011;5572;49.540;11.932;2023-05-14T12:33:55;420.10;;;170.00;;
11037;SDS011;5572;49.540;11.932;2023-05-14T12:36:21;527.00;;;215.93;;
11037;SDS011;5572;49.540;11.932;2023-05-14T12:38:48;397.03;;;160.33;;
11037;SDS011;5572;49.540;11.932;2023-05-14T12:41:15;399.50;;;162.40;;
11037;SDS011;5572;49.540;11.932;2023-05-14T12:43:42;403.20;;;162.83;;
11037;SDS011;5572;49.540;11.932;2023-05-14T12:46:11;511.83;;;182.67;;
11037;SDS011;5572;49.540;11.932;2023-05-14T12:48:37;407.23;;;151.70;;
11037;SDS011;5572;49.540;11.932;2023-05-14T12:51:04;402.63;;;150.23;;
11037;SDS011;5572;49.540;11.932;2023-05-14T12:53:31;508.97;;;162.90;;
11037;SDS011;5572;49.540;11.932;2023-05-14T12:55:59;409.03;;;152.87;;
11037;SDS011;5572;49.540;11.932;2023-05-14T12:58:25;405.67;;;148.97;;
11037;SDS011;5572;49.540;11.932;2023-05-14T13:00:52;520.63;;;185.13;;
11037;SDS011;5572;49.540;11.932;2023-05-14T13:03:20;402.37;;;146.43;;
11037;SDS011;5572;49.540;11.932;2023-05-14T13:05:47;401.27;;;145.43;;
11037;SDS011;5572;49.540;11.932;2023-05-14T13:08:13;405.13;;;146.57;;
11037;SDS011;5572;49.540;11.932;2023-05-14T13:10:41;396.53;;;136.80;;
11037;SDS011;5572;49.540;11.932;2023-05-14T13:13:08;509.17;;;160.73;;
11037;SDS011;5572;49.540;11.932;2023-05-14T13:15:35;519.77;;;175.30;;
11037;SDS011;5572;49.540;11.932;2023-05-14T13:18:03;407.50;;;149.90;;
11037;SDS011;5572;49.540;11.932;2023-05-14T13:20:31;404.70;;;143.43;;
11037;SDS011;5572;49.540;11.932;2023-05-14T13:22:58;404.40;;;132.33;;
11037;SDS011;5572;49.540;11.932;2023-05-14T13:25:24;406.73;;;142.50;;
11037;SDS011;5572;49.540;11.932;2023-05-14T13:27:52;407.30;;;141.97;;
11037;SDS011;5572;49.540;11.932;2023-05-14T13:30:18;520.47;;;174.93;;
11037;SDS011;5572;49.540;11.932;2023-05-14T13:32:52;411.37;;;146.33;;
11037;SDS011;5572;49.540;11.932;2023-05-14T13:35:19;523.53;;;186.97;;
11037;SDS011;5572;49.540;11.932;2023-05-14T13:37:47;398.20;;;140.23;;
11037;SDS011;5572;49.540;11.932;2023-05-14T13:40:17;507.10;;;163.07;;
11037;SDS011;5572;49.540;11.932;2023-05-14T13:42:45;407.37;;;151.30;;
11037;SDS011;5572;49.540;11.932;2023-05-14T13:45:13;411.20;;;155.53;;
11037;SDS011;5572;49.540;11.932;2023-05-14T13:47:42;413.30;;;157.20;;
11037;SDS011;5572;49.540;11.932;2023-05-14T13:50:09;417.57;;;170.97;;
11037;SDS011;5572;49.540;11.932;2023-05-14T13:52:36;423.40;;;167.83;;
11037;SDS011;5572;49.540;11.932;2023-05-14T13:55:06;421.37;;;170.23;;
11037;SDS011;5572;49.540;11.932;2023-05-14T13:57:34;530.07;;;199.27;;
11037;SDS011;5572;49.540;11.932;2023-05-14T14:00:01;536.67;;;208.20;;